메인 페이지
METAR-TAF:

METAR-TAF

공항 :

인천국제공항

인천, 대한민국

위도: 37-28N, 경도: 126-27E, 고도: 7m

현재 날씨관측

예보는 34분 전, 10:00시(UTC)에 발표되었습니다.
7kt
온도 8°C
습도 57%
기압 1022 hPa
시정: 7000m
고도 2000ft 상공 구름 보통

METAR: RKSI 161000Z 36007KT 7000 SCT020 08/00 Q1022 NOSIG

시각: 19:34 (10:34 UTC)

예보

예보는 5 시간 34분 전, 05:00시(UTC)에 발표되었습니다.
예보 대상 시간: 16일 06시부터 17일 12시까지 (UTC)
북북서12kt
시정: 7000m
고도 3000ft 상공 구름 조금
고도 12000ft 상공 구름 많음
일시적
16일 06시부터 16일 08시까지 (UTC)
고도 2500ft 상공 구름 많음
고도 12000ft 상공 구름 많음
전환 중
16일 15시부터 16일 16시까지 (UTC)
15kt, 순간 최대 풍속 25kt
전환 중
16일 23시부터 16일 24시까지 (UTC)
북북서10kt

TAF: RKSI 160500Z 1606/1712 33012KT 7000 FEW030 BKN120 TN02/1621Z TX09/1705Z TEMPO 1606/1608 BKN025 BKN120 BECMG 1615/1616 35015G25KT BECMG 1623/1624 33010KT

4,000개 이상의 공항 관측 자료 및 예보 (METAR 및 TAF 보고).

지도상에서 검색 가능한 기상관측소가 노란 점과 빨간 점으로 표시되어 있습니다.

기상관측소 명을 보려면 표시 위로 마우스를 이동하세요.

날씨 관측과 예보를 보려면 클릭하세요.

지도 변경 : 확대하려면 엑스 표시가 있는 녹색 버튼, 축소하려면 빼기 표시가 있는 녹색 버튼, 다음 페이지의 지도를 보려면 녹색 화살표를 클릭하세요.


METAR-TAF: